Esquina — 2DOU6 — position and weather

sailwx.info

Track history (hours):
 
Tides and Currents Weather Stations Pressure Air Temp Water Temp Dewpoint Dewpoint Depression Visibility Wind Speed Wind Dir Waves Ship Positions

Esquina

Last reported at 2017-Jan-20 13:23 UTC. Time now 2017-Jan-21 06:27 UTC.
Position N 47°43' W 003°21'.

Type: Other ship. MMSI: 235080801.

Date/timePositionNaut miles runAvg speedWind from/ knotsBaromVisibWave heightAir tempDewpointWater temp
2017-Jan-20 13:23N 47°43' W 003°21'1 1.2
2017-Jan-20 12:33N 47°44' W 003°22'1 0.0
2017-Jan-19 14:04N 47°43' W 003°21'0 0.0
2017-Jan-19 13:31N 47°43' W 003°21'0 0.0
2017-Jan-19 12:31N 47°43' W 003°21'0 0.0
2017-Jan-18 16:12N 47°43' W 003°21'4 6.7
2017-Jan-18 15:33N 47°40' W 003°16'3 2.7
2017-Jan-18 14:33N 47°38' W 003°15'0 0.3
2017-Jan-18 13:33N 47°37' W 003°15'0 0.4
2017-Jan-18 12:33N 47°37' W 003°16'2 2.0
2017-Jan-18 11:33N 47°39' W 003°16'1 0.8
2017-Jan-18 10:33N 47°40' W 003°16'4 4.1
2017-Jan-18 09:31N 47°43' W 003°21'2 0.0
2017-Jan-16 10:33N 47°41' W 003°22'5 5.5
2017-Jan-16 09:33N 47°38' W 003°15'0 0.1
2017-Jan-16 08:31N 47°38' W 003°15'1 0.6
2017-Jan-16 07:32N 47°39' W 003°15'1 1.4
2017-Jan-16 06:33N 47°40' W 003°16'4 4.4
2017-Jan-16 05:33N 47°43' W 003°21'  
Track history (hours):
 
Tides and Currents Weather Stations Pressure Air Temp Water Temp Dewpoint Dewpoint Depression Visibility Wind Speed Wind Dir Waves Ship Positions

Esquina

Last reported at 2017-Jan-20 13:23 UTC. Time now 2017-Jan-21 06:27 UTC.
Position N 47°43' W 003°21'.

Type: Other ship. MMSI: 235080801.

Date/timePositionNaut miles runAvg speedWind from/ knotsBaromVisibWave heightAir tempDewpointWater temp
2017-Jan-20 13:23N 47°43' W 003°21'1 1.2
2017-Jan-20 12:33N 47°44' W 003°22'1 0.0
2017-Jan-19 14:04N 47°43' W 003°21'0 0.0
2017-Jan-19 13:31N 47°43' W 003°21'0 0.0
2017-Jan-19 12:31N 47°43' W 003°21'0 0.0
2017-Jan-18 16:12N 47°43' W 003°21'4 6.7
2017-Jan-18 15:33N 47°40' W 003°16'3 2.7
2017-Jan-18 14:33N 47°38' W 003°15'0 0.3
2017-Jan-18 13:33N 47°37' W 003°15'0 0.4
2017-Jan-18 12:33N 47°37' W 003°16'2 2.0
2017-Jan-18 11:33N 47°39' W 003°16'1 0.8
2017-Jan-18 10:33N 47°40' W 003°16'4 4.1
2017-Jan-18 09:31N 47°43' W 003°21'2 0.0
2017-Jan-16 10:33N 47°41' W 003°22'5 5.5
2017-Jan-16 09:33N 47°38' W 003°15'0 0.1
2017-Jan-16 08:31N 47°38' W 003°15'1 0.6
2017-Jan-16 07:32N 47°39' W 003°15'1 1.4
2017-Jan-16 06:33N 47°40' W 003°16'4 4.4
2017-Jan-16 05:33N 47°43' W 003°21'  

Dump ship's entire track history